sensor_id;sensor_type;location;lat;lon;timestamp;P1;durP1;ratioP1;P2;durP2;ratioP2
37284;SDS011;23172;53.550;9.964;2023-04-03T00:00:03;2.97;;;1.58;;
37284;SDS011;23172;53.550;9.964;2023-04-03T00:05:08;3.92;;;1.95;;
37284;SDS011;23172;53.550;9.964;2023-04-03T00:10:10;2.90;;;1.75;;
37284;SDS011;23172;53.550;9.964;2023-04-03T00:15:15;4.25;;;1.70;;
37284;SDS011;23172;53.550;9.964;2023-04-03T00:20:18;4.00;;;1.42;;
37284;SDS011;23172;53.550;9.964;2023-04-03T00:25:20;2.40;;;1.50;;
37284;SDS011;23172;53.550;9.964;2023-04-03T00:30:22;1.67;;;1.30;;
37284;SDS011;23172;53.550;9.964;2023-04-03T00:35:26;4.43;;;1.27;;
37284;SDS011;23172;53.550;9.964;2023-04-03T00:40:32;4.57;;;1.52;;
37284;SDS011;23172;53.550;9.964;2023-04-03T00:45:36;2.10;;;1.45;;
37284;SDS011;23172;53.550;9.964;2023-04-03T00:50:41;2.28;;;1.30;;
37284;SDS011;23172;53.550;9.964;2023-04-03T00:55:45;4.38;;;2.22;;
37284;SDS011;23172;53.550;9.964;2023-04-03T01:00:50;3.67;;;1.55;;
37284;SDS011;23172;53.550;9.964;2023-04-03T01:05:58;2.65;;;1.60;;
37284;SDS011;23172;53.550;9.964;2023-04-03T01:11:01;2.97;;;1.75;;
37284;SDS011;23172;53.550;9.964;2023-04-03T01:16:03;2.35;;;1.27;;
37284;SDS011;23172;53.550;9.964;2023-04-03T01:21:27;4.28;;;2.10;;
37284;SDS011;23172;53.550;9.964;2023-04-03T01:26:50;3.20;;;1.45;;
37284;SDS011;23172;53.550;9.964;2023-04-03T01:31:54;3.85;;;1.70;;
37284;SDS011;23172;53.550;9.964;2023-04-03T01:36:57;3.38;;;1.50;;
37284;SDS011;23172;53.550;9.964;2023-04-03T01:41:59;3.92;;;1.80;;
37284;SDS011;23172;53.550;9.964;2023-04-03T01:47:02;3.08;;;1.73;;
37284;SDS011;23172;53.550;9.964;2023-04-03T01:52:07;2.72;;;1.70;;
37284;SDS011;23172;53.550;9.964;2023-04-03T01:57:09;3.08;;;1.50;;
37284;SDS011;23172;53.550;9.964;2023-04-03T02:02:13;1.90;;;1.48;;
37284;SDS011;23172;53.550;9.964;2023-04-03T02:07:14;1.67;;;1.38;;
37284;SDS011;23172;53.550;9.964;2023-04-03T02:12:16;4.63;;;1.42;;
37284;SDS011;23172;53.550;9.964;2023-04-03T02:17:20;3.63;;;1.60;;
37284;SDS011;23172;53.550;9.964;2023-04-03T02:22:22;5.07;;;1.95;;
37284;SDS011;23172;53.550;9.964;2023-04-03T02:27:24;3.08;;;1.73;;
37284;SDS011;23172;53.550;9.964;2023-04-03T02:32:27;4.00;;;1.70;;
37284;SDS011;23172;53.550;9.964;2023-04-03T02:37:29;2.83;;;1.80;;
37284;SDS011;23172;53.550;9.964;2023-04-03T02:42:31;1.80;;;1.27;;
37284;SDS011;23172;53.550;9.964;2023-04-03T02:47:34;1.77;;;1.10;;
37284;SDS011;23172;53.550;9.964;2023-04-03T02:52:36;2.83;;;1.30;;
37284;SDS011;23172;53.550;9.964;2023-04-03T02:57:38;2.13;;;1.60;;
37284;SDS011;23172;53.550;9.964;2023-04-03T03:02:41;3.90;;;1.73;;
37284;SDS011;23172;53.550;9.964;2023-04-03T03:07:43;3.63;;;1.40;;
37284;SDS011;23172;53.550;9.964;2023-04-03T03:12:45;3.67;;;1.40;;
37284;SDS011;23172;53.550;9.964;2023-04-03T03:17:49;2.97;;;1.50;;
37284;SDS011;23172;53.550;9.964;2023-04-03T03:22:50;2.75;;;1.60;;
37284;SDS011;23172;53.550;9.964;2023-04-03T03:27:52;2.30;;;1.48;;
37284;SDS011;23172;53.550;9.964;2023-04-03T03:32:55;3.72;;;1.75;;
37284;SDS011;23172;53.550;9.964;2023-04-03T03:37:57;2.83;;;1.60;;
37284;SDS011;23172;53.550;9.964;2023-04-03T03:42:59;2.35;;;1.58;;
37284;SDS011;23172;53.550;9.964;2023-04-03T03:48:03;2.03;;;1.30;;
37284;SDS011;23172;53.550;9.964;2023-04-03T03:53:05;4.05;;;1.55;;
37284;SDS011;23172;53.550;9.964;2023-04-03T03:58:07;2.95;;;1.75;;
37284;SDS011;23172;53.550;9.964;2023-04-03T04:03:10;8.13;;;3.20;;
37284;SDS011;23172;53.550;9.964;2023-04-03T04:08:12;4.03;;;1.80;;
37284;SDS011;23172;53.550;9.964;2023-04-03T04:13:14;3.78;;;1.55;;
37284;SDS011;23172;53.550;9.964;2023-04-03T04:18:18;3.08;;;1.60;;
37284;SDS011;23172;53.550;9.964;2023-04-03T04:23:22;2.58;;;1.33;;
37284;SDS011;23172;53.550;9.964;2023-04-03T04:28:24;2.30;;;1.52;;
37284;SDS011;23172;53.550;9.964;2023-04-03T04:33:27;3.83;;;1.75;;
37284;SDS011;23172;53.550;9.964;2023-04-03T04:38:29;2.47;;;1.88;;
37284;SDS011;23172;53.550;9.964;2023-04-03T04:43:31;9.82;;;3.15;;
37284;SDS011;23172;53.550;9.964;2023-04-03T04:48:35;6.60;;;2.17;;
37284;SDS011;23172;53.550;9.964;2023-04-03T04:53:37;4.43;;;2.50;;
37284;SDS011;23172;53.550;9.964;2023-04-03T04:58:38;3.72;;;2.55;;
37284;SDS011;23172;53.550;9.964;2023-04-03T05:03:42;5.32;;;2.33;;
37284;SDS011;23172;53.550;9.964;2023-04-03T05:08:44;3.83;;;1.90;;
37284;SDS011;23172;53.550;9.964;2023-04-03T05:13:45;3.80;;;1.90;;
37284;SDS011;23172;53.550;9.964;2023-04-03T05:18:49;4.70;;;2.25;;
37284;SDS011;23172;53.550;9.964;2023-04-03T05:23:50;3.85;;;2.13;;
37284;SDS011;23172;53.550;9.964;2023-04-03T05:28:53;3.60;;;2.08;;
37284;SDS011;23172;53.550;9.964;2023-04-03T05:33:56;2.75;;;2.05;;
37284;SDS011;23172;53.550;9.964;2023-04-03T05:38:58;6.40;;;3.92;;
37284;SDS011;23172;53.550;9.964;2023-04-03T05:44:00;3.60;;;1.90;;
37284;SDS011;23172;53.550;9.964;2023-04-03T05:49:03;5.82;;;2.13;;
37284;SDS011;23172;53.550;9.964;2023-04-03T05:54:08;4.10;;;1.90;;
37284;SDS011;23172;53.550;9.964;2023-04-03T05:59:15;3.58;;;1.92;;
37284;SDS011;23172;53.550;9.964;2023-04-03T06:04:18;5.63;;;2.20;;
37284;SDS011;23172;53.550;9.964;2023-04-03T06:09:21;2.95;;;1.60;;
37284;SDS011;23172;53.550;9.964;2023-04-03T06:14:24;4.43;;;1.65;;
37284;SDS011;23172;53.550;9.964;2023-04-03T06:19:28;3.53;;;2.00;;
37284;SDS011;23172;53.550;9.964;2023-04-03T06:24:30;3.63;;;1.85;;
37284;SDS011;23172;53.550;9.964;2023-04-03T06:29:32;3.92;;;1.65;;
37284;SDS011;23172;53.550;9.964;2023-04-03T06:34:35;5.30;;;2.47;;
37284;SDS011;23172;53.550;9.964;2023-04-03T06:39:37;5.28;;;2.22;;
37284;SDS011;23172;53.550;9.964;2023-04-03T06:44:40;2.97;;;1.65;;
37284;SDS011;23172;53.550;9.964;2023-04-03T06:49:43;3.28;;;1.80;;
37284;SDS011;23172;53.550;9.964;2023-04-03T06:54:45;2.83;;;1.83;;
37284;SDS011;23172;53.550;9.964;2023-04-03T06:59:47;2.05;;;1.35;;
37284;SDS011;23172;53.550;9.964;2023-04-03T07:04:51;5.15;;;1.92;;
37284;SDS011;23172;53.550;9.964;2023-04-03T07:09:52;4.75;;;1.60;;
37284;SDS011;23172;53.550;9.964;2023-04-03T07:14:54;5.15;;;1.60;;
37284;SDS011;23172;53.550;9.964;2023-04-03T07:19:57;1.60;;;1.05;;
37284;SDS011;23172;53.550;9.964;2023-04-03T07:24:59;2.92;;;1.35;;
37284;SDS011;23172;53.550;9.964;2023-04-03T07:30:01;2.22;;;1.20;;
37284;SDS011;23172;53.550;9.964;2023-04-03T07:35:05;2.22;;;1.08;;
37284;SDS011;23172;53.550;9.964;2023-04-03T07:40:07;2.22;;;1.10;;
37284;SDS011;23172;53.550;9.964;2023-04-03T07:45:10;2.90;;;1.17;;
37284;SDS011;23172;53.550;9.964;2023-04-03T07:50:13;2.20;;;1.00;;
37284;SDS011;23172;53.550;9.964;2023-04-03T07:55:16;2.92;;;0.93;;
37284;SDS011;23172;53.550;9.964;2023-04-03T08:00:18;2.60;;;0.90;;
37284;SDS011;23172;53.550;9.964;2023-04-03T08:05:22;2.72;;;1.05;;
37284;SDS011;23172;53.550;9.964;2023-04-03T08:10:24;1.45;;;1.00;;
37284;SDS011;23172;53.550;9.964;2023-04-03T08:15:25;2.13;;;1.38;;
37284;SDS011;23172;53.550;9.964;2023-04-03T08:20:29;13.15;;;12.35;;
37284;SDS011;23172;53.550;9.964;2023-04-03T08:25:31;38.42;;;35.35;;
37284;SDS011;23172;53.550;9.964;2023-04-03T08:30:34;736.45;;;687.40;;
37284;SDS011;23172;53.550;9.964;2023-04-03T08:35:39;671.33;;;622.65;;
37284;SDS011;23172;53.550;9.964;2023-04-03T08:40:41;1829.45;;;971.60;;
37284;SDS011;23172;53.550;9.964;2023-04-03T08:45:44;1999.90;;;999.90;;
37284;SDS011;23172;53.550;9.964;2023-04-03T08:50:51;1999.90;;;999.90;;
37284;SDS011;23172;53.550;9.964;2023-04-03T08:55:56;1999.90;;;999.90;;
37284;SDS011;23172;53.550;9.964;2023-04-03T09:01:00;1999.90;;;999.90;;
37284;SDS011;23172;53.550;9.964;2023-04-03T09:06:06;1999.90;;;999.90;;
37284;SDS011;23172;53.550;9.964;2023-04-03T09:11:14;1999.90;;;999.90;;
37284;SDS011;23172;53.550;9.964;2023-04-03T09:16:25;1999.90;;;999.90;;
37284;SDS011;23172;53.550;9.964;2023-04-03T09:21:36;1999.90;;;999.90;;
37284;SDS011;23172;53.550;9.964;2023-04-03T09:26:43;1999.90;;;996.67;;
37284;SDS011;23172;53.550;9.964;2023-04-03T09:31:47;1369.60;;;999.90;;
37284;SDS011;23172;53.550;9.964;2023-04-03T09:36:52;685.65;;;643.92;;
37284;SDS011;23172;53.550;9.964;2023-04-03T09:41:57;170.13;;;161.40;;
37284;SDS011;23172;53.550;9.964;2023-04-03T09:47:16;25.92;;;24.17;;
37284;SDS011;23172;53.550;9.964;2023-04-03T09:52:22;7.70;;;7.10;;
37284;SDS011;23172;53.550;9.964;2023-04-03T09:57:28;2.22;;;1.85;;
37284;SDS011;23172;53.550;9.964;2023-04-03T10:02:35;1.65;;;1.10;;
37284;SDS011;23172;53.550;9.964;2023-04-03T10:07:39;1.90;;;0.93;;
37284;SDS011;23172;53.550;9.964;2023-04-03T10:12:40;1.50;;;0.85;;
37284;SDS011;23172;53.550;9.964;2023-04-03T10:17:47;1.23;;;0.98;;
37284;SDS011;23172;53.550;9.964;2023-04-03T10:23:00;1.67;;;1.00;;
37284;SDS011;23172;53.550;9.964;2023-04-03T10:28:12;2.25;;;0.80;;
37284;SDS011;23172;53.550;9.964;2023-04-03T10:33:25;3.17;;;1.60;;
37284;SDS011;23172;53.550;9.964;2023-04-03T10:38:40;1.25;;;0.88;;
37284;SDS011;23172;53.550;9.964;2023-04-03T10:43:50;1.67;;;0.90;;
37284;SDS011;23172;53.550;9.964;2023-04-03T10:49:03;1.00;;;0.73;;
37284;SDS011;23172;53.550;9.964;2023-04-03T10:54:14;0.98;;;0.75;;
37284;SDS011;23172;53.550;9.964;2023-04-03T10:59:23;1.67;;;1.08;;
37284;SDS011;23172;53.550;9.964;2023-04-03T11:04:29;1.90;;;1.13;;
37284;SDS011;23172;53.550;9.964;2023-04-03T11:09:37;1.05;;;0.80;;
37284;SDS011;23172;53.550;9.964;2023-04-03T11:14:42;1.20;;;0.70;;
37284;SDS011;23172;53.550;9.964;2023-04-03T11:19:45;2.53;;;1.15;;
37284;SDS011;23172;53.550;9.964;2023-04-03T11:24:56;3.97;;;1.20;;
37284;SDS011;23172;53.550;9.964;2023-04-03T11:30:05;3.88;;;1.30;;
37284;SDS011;23172;53.550;9.964;2023-04-03T11:35:10;1.17;;;0.70;;
37284;SDS011;23172;53.550;9.964;2023-04-03T11:40:20;3.50;;;1.08;;
37284;SDS011;23172;53.550;9.964;2023-04-03T11:45:31;1.38;;;0.90;;
37284;SDS011;23172;53.550;9.964;2023-04-03T11:50:41;2.35;;;0.93;;
37284;SDS011;23172;53.550;9.964;2023-04-03T11:55:52;2.05;;;0.90;;
37284;SDS011;23172;53.550;9.964;2023-04-03T12:00:56;1.42;;;0.80;;
37284;SDS011;23172;53.550;9.964;2023-04-03T12:11:38;3.80;;;0.93;;
37284;SDS011;23172;53.550;9.964;2023-04-03T12:16:42;3.25;;;0.98;;
37284;SDS011;23172;53.550;9.964;2023-04-03T12:22:08;1.63;;;0.73;;
37284;SDS011;23172;53.550;9.964;2023-04-03T12:27:24;2.95;;;1.92;;
37284;SDS011;23172;53.550;9.964;2023-04-03T12:32:37;3.08;;;1.02;;
37284;SDS011;23172;53.550;9.964;2023-04-03T12:37:57;1.60;;;1.20;;
37284;SDS011;23172;53.550;9.964;2023-04-03T12:43:25;2.13;;;1.00;;
37284;SDS011;23172;53.550;9.964;2023-04-03T12:48:47;1.40;;;0.88;;
37284;SDS011;23172;53.550;9.964;2023-04-03T12:53:51;1.13;;;0.70;;
37284;SDS011;23172;53.550;9.964;2023-04-03T13:04:17;2.50;;;1.60;;
37284;SDS011;23172;53.550;9.964;2023-04-03T13:09:20;3.47;;;1.50;;
37284;SDS011;23172;53.550;9.964;2023-04-03T13:14:27;1.20;;;0.82;;
37284;SDS011;23172;53.550;9.964;2023-04-03T13:19:30;2.00;;;0.90;;
37284;SDS011;23172;53.550;9.964;2023-04-03T13:24:32;2.65;;;1.00;;
37284;SDS011;23172;53.550;9.964;2023-04-03T13:29:39;2.53;;;0.98;;
37284;SDS011;23172;53.550;9.964;2023-04-03T13:34:42;1.73;;;0.90;;
37284;SDS011;23172;53.550;9.964;2023-04-03T13:39:44;0.95;;;0.68;;
37284;SDS011;23172;53.550;9.964;2023-04-03T13:44:48;2.08;;;1.20;;
37284;SDS011;23172;53.550;9.964;2023-04-03T13:49:59;1.25;;;0.80;;
37284;SDS011;23172;53.550;9.964;2023-04-03T13:55:03;1.70;;;0.85;;
37284;SDS011;23172;53.550;9.964;2023-04-03T14:00:22;1.58;;;0.90;;
37284;SDS011;23172;53.550;9.964;2023-04-03T14:05:30;1.13;;;0.90;;
37284;SDS011;23172;53.550;9.964;2023-04-03T14:10:31;1.27;;;0.80;;
37284;SDS011;23172;53.550;9.964;2023-04-03T14:15:35;1.65;;;0.60;;
37284;SDS011;23172;53.550;9.964;2023-04-03T14:20:37;1.77;;;1.17;;
37284;SDS011;23172;53.550;9.964;2023-04-03T14:25:39;2.70;;;1.83;;
37284;SDS011;23172;53.550;9.964;2023-04-03T14:30:43;3.05;;;0.80;;
37284;SDS011;23172;53.550;9.964;2023-04-03T14:35:46;1.08;;;0.82;;
37284;SDS011;23172;53.550;9.964;2023-04-03T14:40:48;1.95;;;0.98;;
37284;SDS011;23172;53.550;9.964;2023-04-03T14:45:52;1.13;;;0.75;;
37284;SDS011;23172;53.550;9.964;2023-04-03T14:50:54;1.20;;;1.00;;
37284;SDS011;23172;53.550;9.964;2023-04-03T14:55:56;1.40;;;1.08;;
37284;SDS011;23172;53.550;9.964;2023-04-03T15:00:59;1.45;;;1.10;;
37284;SDS011;23172;53.550;9.964;2023-04-03T15:06:02;2.42;;;1.00;;
37284;SDS011;23172;53.550;9.964;2023-04-03T15:11:04;4.40;;;1.05;;
37284;SDS011;23172;53.550;9.964;2023-04-03T15:16:11;1.67;;;1.05;;
37284;SDS011;23172;53.550;9.964;2023-04-03T15:21:16;2.17;;;1.30;;
37284;SDS011;23172;53.550;9.964;2023-04-03T15:26:18;2.33;;;1.58;;
37284;SDS011;23172;53.550;9.964;2023-04-03T15:31:22;2.15;;;1.15;;
37284;SDS011;23172;53.550;9.964;2023-04-03T15:36:23;3.22;;;1.20;;
37284;SDS011;23172;53.550;9.964;2023-04-03T15:41:25;3.25;;;1.48;;
37284;SDS011;23172;53.550;9.964;2023-04-03T15:46:28;1.05;;;0.93;;
37284;SDS011;23172;53.550;9.964;2023-04-03T15:51:31;2.00;;;1.27;;
37284;SDS011;23172;53.550;9.964;2023-04-03T15:56:33;4.32;;;1.73;;
37284;SDS011;23172;53.550;9.964;2023-04-03T16:01:37;3.00;;;1.52;;
37284;SDS011;23172;53.550;9.964;2023-04-03T16:06:40;1.80;;;1.13;;
37284;SDS011;23172;53.550;9.964;2023-04-03T16:11:42;1.15;;;0.80;;
37284;SDS011;23172;53.550;9.964;2023-04-03T16:16:48;1.58;;;1.00;;
37284;SDS011;23172;53.550;9.964;2023-04-03T16:21:51;4.75;;;1.10;;
37284;SDS011;23172;53.550;9.964;2023-04-03T16:26:54;2.03;;;1.15;;
37284;SDS011;23172;53.550;9.964;2023-04-03T16:31:57;1.08;;;0.98;;
37284;SDS011;23172;53.550;9.964;2023-04-03T16:37:00;2.25;;;1.30;;
37284;SDS011;23172;53.550;9.964;2023-04-03T16:42:02;2.38;;;1.00;;
37284;SDS011;23172;53.550;9.964;2023-04-03T16:47:05;1.17;;;0.90;;
37284;SDS011;23172;53.550;9.964;2023-04-03T16:52:07;1.42;;;1.17;;
37284;SDS011;23172;53.550;9.964;2023-04-03T16:57:09;3.28;;;1.52;;
37284;SDS011;23172;53.550;9.964;2023-04-03T17:02:12;1.90;;;1.10;;
37284;SDS011;23172;53.550;9.964;2023-04-03T17:07:14;2.33;;;1.58;;
37284;SDS011;23172;53.550;9.964;2023-04-03T17:12:16;1.90;;;1.20;;
37284;SDS011;23172;53.550;9.964;2023-04-03T17:17:20;1.45;;;1.20;;
37284;SDS011;23172;53.550;9.964;2023-04-03T17:22:25;4.88;;;1.80;;
37284;SDS011;23172;53.550;9.964;2023-04-03T17:27:28;2.67;;;1.50;;
37284;SDS011;23172;53.550;9.964;2023-04-03T17:32:31;2.53;;;1.35;;
37284;SDS011;23172;53.550;9.964;2023-04-03T17:37:33;3.22;;;1.70;;
37284;SDS011;23172;53.550;9.964;2023-04-03T17:42:34;2.90;;;1.50;;
37284;SDS011;23172;53.550;9.964;2023-04-03T17:47:38;3.42;;;1.50;;
37284;SDS011;23172;53.550;9.964;2023-04-03T17:52:40;3.40;;;1.65;;
37284;SDS011;23172;53.550;9.964;2023-04-03T17:57:42;3.45;;;1.50;;
37284;SDS011;23172;53.550;9.964;2023-04-03T18:02:45;3.58;;;1.33;;
37284;SDS011;23172;53.550;9.964;2023-04-03T18:07:47;3.03;;;1.52;;
37284;SDS011;23172;53.550;9.964;2023-04-03T18:12:50;1.80;;;1.08;;
37284;SDS011;23172;53.550;9.964;2023-04-03T18:17:53;1.73;;;1.33;;
37284;SDS011;23172;53.550;9.964;2023-04-03T18:22:56;1.98;;;1.30;;
37284;SDS011;23172;53.550;9.964;2023-04-03T18:27:57;2.60;;;1.25;;
37284;SDS011;23172;53.550;9.964;2023-04-03T18:33:06;2.45;;;1.25;;
37284;SDS011;23172;53.550;9.964;2023-04-03T18:38:08;7.50;;;1.85;;
37284;SDS011;23172;53.550;9.964;2023-04-03T18:43:10;2.25;;;1.48;;
37284;SDS011;23172;53.550;9.964;2023-04-03T18:48:14;2.97;;;1.63;;
37284;SDS011;23172;53.550;9.964;2023-04-03T18:53:16;2.33;;;1.63;;
37284;SDS011;23172;53.550;9.964;2023-04-03T18:58:18;2.00;;;1.50;;
37284;SDS011;23172;53.550;9.964;2023-04-03T19:03:21;3.10;;;1.70;;
37284;SDS011;23172;53.550;9.964;2023-04-03T19:08:23;4.15;;;1.58;;
37284;SDS011;23172;53.550;9.964;2023-04-03T19:13:25;2.28;;;1.40;;
37284;SDS011;23172;53.550;9.964;2023-04-03T19:18:29;2.78;;;1.55;;
37284;SDS011;23172;53.550;9.964;2023-04-03T19:23:31;3.05;;;1.95;;
37284;SDS011;23172;53.550;9.964;2023-04-03T19:28:33;2.70;;;1.73;;
37284;SDS011;23172;53.550;9.964;2023-04-03T19:33:36;2.13;;;1.60;;
37284;SDS011;23172;53.550;9.964;2023-04-03T19:38:40;2.83;;;1.50;;
37284;SDS011;23172;53.550;9.964;2023-04-03T19:43:42;2.00;;;1.20;;
37284;SDS011;23172;53.550;9.964;2023-04-03T19:48:46;2.95;;;1.45;;
37284;SDS011;23172;53.550;9.964;2023-04-03T19:53:48;1.90;;;1.40;;
37284;SDS011;23172;53.550;9.964;2023-04-03T19:58:51;1.75;;;1.30;;
37284;SDS011;23172;53.550;9.964;2023-04-03T20:03:55;2.90;;;1.95;;
37284;SDS011;23172;53.550;9.964;2023-04-03T20:08:57;2.15;;;1.70;;
37284;SDS011;23172;53.550;9.964;2023-04-03T20:13:59;5.28;;;2.00;;
37284;SDS011;23172;53.550;9.964;2023-04-03T20:19:02;3.30;;;1.65;;
37284;SDS011;23172;53.550;9.964;2023-04-03T20:24:06;3.30;;;2.25;;
37284;SDS011;23172;53.550;9.964;2023-04-03T20:29:08;1.75;;;1.23;;
37284;SDS011;23172;53.550;9.964;2023-04-03T20:34:12;4.90;;;2.80;;
37284;SDS011;23172;53.550;9.964;2023-04-03T20:39:15;2.92;;;1.52;;
37284;SDS011;23172;53.550;9.964;2023-04-03T20:44:18;1.92;;;1.40;;
37284;SDS011;23172;53.550;9.964;2023-04-03T20:49:22;1.77;;;1.40;;
37284;SDS011;23172;53.550;9.964;2023-04-03T20:54:24;2.35;;;1.30;;
37284;SDS011;23172;53.550;9.964;2023-04-03T20:59:27;3.50;;;1.40;;
37284;SDS011;23172;53.550;9.964;2023-04-03T21:04:32;1.70;;;1.30;;
37284;SDS011;23172;53.550;9.964;2023-04-03T21:20:49;1.38;;;0.90;;
37284;SDS011;23172;53.550;9.964;2023-04-03T21:25:51;1.52;;;1.10;;
37284;SDS011;23172;53.550;9.964;2023-04-03T21:30:53;1.60;;;1.10;;
37284;SDS011;23172;53.550;9.964;2023-04-03T21:35:56;1.45;;;1.00;;
37284;SDS011;23172;53.550;9.964;2023-04-03T21:40:58;2.10;;;1.40;;
37284;SDS011;23172;53.550;9.964;2023-04-03T21:46:00;1.67;;;1.08;;
37284;SDS011;23172;53.550;9.964;2023-04-03T21:51:05;2.50;;;1.30;;
37284;SDS011;23172;53.550;9.964;2023-04-03T21:56:07;1.27;;;1.15;;
37284;SDS011;23172;53.550;9.964;2023-04-03T22:01:10;1.38;;;1.20;;
37284;SDS011;23172;53.550;9.964;2023-04-03T22:06:15;2.22;;;1.33;;
37284;SDS011;23172;53.550;9.964;2023-04-03T22:11:17;2.10;;;1.40;;
37284;SDS011;23172;53.550;9.964;2023-04-03T22:16:22;1.58;;;1.13;;
37284;SDS011;23172;53.550;9.964;2023-04-03T22:21:25;3.30;;;1.38;;
37284;SDS011;23172;53.550;9.964;2023-04-03T22:26:27;2.03;;;1.40;;
37284;SDS011;23172;53.550;9.964;2023-04-03T22:31:29;2.72;;;1.40;;
37284;SDS011;23172;53.550;9.964;2023-04-03T22:36:32;2.78;;;1.50;;
37284;SDS011;23172;53.550;9.964;2023-04-03T22:41:35;1.27;;;1.15;;
37284;SDS011;23172;53.550;9.964;2023-04-03T22:46:37;1.55;;;1.10;;
37284;SDS011;23172;53.550;9.964;2023-04-03T22:51:41;1.73;;;1.10;;
37284;SDS011;23172;53.550;9.964;2023-04-03T22:56:43;1.45;;;1.00;;
37284;SDS011;23172;53.550;9.964;2023-04-03T23:01:45;1.00;;;0.90;;
37284;SDS011;23172;53.550;9.964;2023-04-03T23:06:48;2.65;;;0.80;;
37284;SDS011;23172;53.550;9.964;2023-04-03T23:11:50;3.20;;;1.00;;
37284;SDS011;23172;53.550;9.964;2023-04-03T23:16:52;2.28;;;0.90;;
37284;SDS011;23172;53.550;9.964;2023-04-03T23:21:55;1.90;;;1.30;;
37284;SDS011;23172;53.550;9.964;2023-04-03T23:26:57;1.25;;;0.80;;
37284;SDS011;23172;53.550;9.964;2023-04-03T23:31:59;1.20;;;0.70;;
37284;SDS011;23172;53.550;9.964;2023-04-03T23:37:02;1.67;;;1.00;;
37284;SDS011;23172;53.550;9.964;2023-04-03T23:42:04;1.52;;;0.73;;
37284;SDS011;23172;53.550;9.964;2023-04-03T23:47:09;1.50;;;1.17;;
37284;SDS011;23172;53.550;9.964;2023-04-03T23:52:13;1.60;;;0.98;;
37284;SDS011;23172;53.550;9.964;2023-04-03T23:57:15;2.03;;;0.90;;
